Weather

HUBS METAR

EGHQ Newquay Cornwall Airport


EGHQ 220820Z 02004KT 4500 -RADZ BR SCT005 BKN029 10/09 Q1009

Weather

EGHC Land's End Airport


EGHC 220820Z 01007KT 9999 VCSH FEW008 SCT016 10/10 Q1008

EGHE St. Mary's Airport


EGHE 220820Z 01006KT 9999 FEW005 SCT013 BKN023 10/10 Q1009

   

FLIGHT DETAILS

   

AirlinePilot IDFlightTimeDestinationArrival Time
Brymon AirwaysBRY01BC40107:15:00Gatwick08:55:00
Brymon AirwaysBRY05VF10919:15:00Isle of Man20:52:00
VirtualflyteBRY05VF10810:30:00East Midlands11:35:00
VirtualflyteBRY05VF10719:30:00Norwich20:45:00